sensor_id;sensor_type;location;lat;lon;timestamp;temperature;humidity
71142;DHT22;58808;59.366;17.970;2023-02-18T00:01:33;4.60;99.90
71142;DHT22;58808;59.366;17.970;2023-02-18T00:04:00;4.60;99.90
71142;DHT22;58808;59.366;17.970;2023-02-18T00:06:33;4.60;99.90
71142;DHT22;58808;59.366;17.970;2023-02-18T00:09:00;4.60;99.90
71142;DHT22;58808;59.366;17.970;2023-02-18T00:11:28;4.60;99.90
71142;DHT22;58808;59.366;17.970;2023-02-18T00:13:56;4.60;99.90
71142;DHT22;58808;59.366;17.970;2023-02-18T00:16:23;4.60;99.90
71142;DHT22;58808;59.366;17.970;2023-02-18T00:18:50;4.50;99.90
71142;DHT22;58808;59.366;17.970;2023-02-18T00:21:19;4.60;99.90
71142;DHT22;58808;59.366;17.970;2023-02-18T00:23:44;4.50;99.90
71142;DHT22;58808;59.366;17.970;2023-02-18T00:26:13;4.50;99.90
71142;DHT22;58808;59.366;17.970;2023-02-18T00:28:39;4.50;99.90
71142;DHT22;58808;59.366;17.970;2023-02-18T00:31:10;4.50;99.90
71142;DHT22;58808;59.366;17.970;2023-02-18T00:33:36;4.50;99.90
71142;DHT22;58808;59.366;17.970;2023-02-18T00:36:08;4.40;99.90
71142;DHT22;58808;59.366;17.970;2023-02-18T00:38:34;4.50;99.90
71142;DHT22;58808;59.366;17.970;2023-02-18T00:41:01;4.40;99.90
71142;DHT22;58808;59.366;17.970;2023-02-18T00:43:27;4.40;99.90
71142;DHT22;58808;59.366;17.970;2023-02-18T00:45:53;4.40;99.90
71142;DHT22;58808;59.366;17.970;2023-02-18T00:48:19;4.40;99.90
71142;DHT22;58808;59.366;17.970;2023-02-18T00:50:45;4.40;99.90
71142;DHT22;58808;59.366;17.970;2023-02-18T00:53:12;4.30;99.90
71142;DHT22;58808;59.366;17.970;2023-02-18T00:55:42;4.30;99.90
71142;DHT22;58808;59.366;17.970;2023-02-18T00:58:09;4.30;99.90
71142;DHT22;58808;59.366;17.970;2023-02-18T01:00:35;4.30;99.90
71142;DHT22;58808;59.366;17.970;2023-02-18T01:03:01;4.30;99.90
71142;DHT22;58808;59.366;17.970;2023-02-18T01:05:27;4.30;99.90
71142;DHT22;58808;59.366;17.970;2023-02-18T01:07:53;4.30;99.90
71142;DHT22;58808;59.366;17.970;2023-02-18T01:10:19;4.30;99.90
71142;DHT22;58808;59.366;17.970;2023-02-18T01:12:45;4.30;99.90
71142;DHT22;58808;59.366;17.970;2023-02-18T01:15:14;4.30;99.90
71142;DHT22;58808;59.366;17.970;2023-02-18T01:17:40;4.20;99.90
71142;DHT22;58808;59.366;17.970;2023-02-18T01:20:07;4.20;99.90
71142;DHT22;58808;59.366;17.970;2023-02-18T01:22:32;4.20;99.90
71142;DHT22;58808;59.366;17.970;2023-02-18T01:24:58;4.10;99.90
71142;DHT22;58808;59.366;17.970;2023-02-18T01:27:24;4.10;99.90
71142;DHT22;58808;59.366;17.970;2023-02-18T01:29:49;4.00;99.90
71142;DHT22;58808;59.366;17.970;2023-02-18T01:32:15;4.00;99.90
71142;DHT22;58808;59.366;17.970;2023-02-18T01:34:41;3.90;99.90
71142;DHT22;58808;59.366;17.970;2023-02-18T01:37:07;3.80;99.90
71142;DHT22;58808;59.366;17.970;2023-02-18T01:39:32;3.70;99.90
71142;DHT22;58808;59.366;17.970;2023-02-18T01:41:58;3.60;99.90
71142;DHT22;58808;59.366;17.970;2023-02-18T01:44:27;3.60;99.90
71142;DHT22;58808;59.366;17.970;2023-02-18T01:46:53;3.50;99.90
71142;DHT22;58808;59.366;17.970;2023-02-18T01:49:23;3.50;99.90
71142;DHT22;58808;59.366;17.970;2023-02-18T01:51:53;3.50;99.90
71142;DHT22;58808;59.366;17.970;2023-02-18T01:54:28;3.40;99.90
71142;DHT22;58808;59.366;17.970;2023-02-18T01:57:19;3.30;99.90
71142;DHT22;58808;59.366;17.970;2023-02-18T01:59:59;3.30;99.90
71142;DHT22;58808;59.366;17.970;2023-02-18T02:02:27;3.30;99.90
71142;DHT22;58808;59.366;17.970;2023-02-18T02:04:54;3.20;99.90
71142;DHT22;58808;59.366;17.970;2023-02-18T02:07:21;3.10;99.90
71142;DHT22;58808;59.366;17.970;2023-02-18T02:09:50;3.10;99.90
71142;DHT22;58808;59.366;17.970;2023-02-18T02:34:36;2.50;99.90
71142;DHT22;58808;59.366;17.970;2023-02-18T02:53:45;2.00;99.90
71142;DHT22;58808;59.366;17.970;2023-02-18T02:56:23;2.00;99.90
71142;DHT22;58808;59.366;17.970;2023-02-18T02:59:05;2.00;99.90
71142;DHT22;58808;59.366;17.970;2023-02-18T03:10:16;2.00;99.90
71142;DHT22;58808;59.366;17.970;2023-02-18T03:13:11;2.00;99.90
71142;DHT22;58808;59.366;17.970;2023-02-18T03:16:22;2.00;99.90
71142;DHT22;58808;59.366;17.970;2023-02-18T03:24:33;2.10;99.90
71142;DHT22;58808;59.366;17.970;2023-02-18T03:27:07;2.10;99.90
71142;DHT22;58808;59.366;17.970;2023-02-18T03:29:34;2.10;99.90
71142;DHT22;58808;59.366;17.970;2023-02-18T03:32:04;2.10;99.90
71142;DHT22;58808;59.366;17.970;2023-02-18T03:34:35;2.10;99.90
71142;DHT22;58808;59.366;17.970;2023-02-18T03:37:02;2.10;99.90
71142;DHT22;58808;59.366;17.970;2023-02-18T03:39:31;2.10;99.90
71142;DHT22;58808;59.366;17.970;2023-02-18T03:42:00;2.10;99.90
71142;DHT22;58808;59.366;17.970;2023-02-18T03:44:31;2.10;99.90
71142;DHT22;58808;59.366;17.970;2023-02-18T03:47:00;2.10;99.90
71142;DHT22;58808;59.366;17.970;2023-02-18T03:49:27;2.00;99.90
71142;DHT22;58808;59.366;17.970;2023-02-18T03:51:53;2.00;99.90
71142;DHT22;58808;59.366;17.970;2023-02-18T03:54:20;2.00;99.90
71142;DHT22;58808;59.366;17.970;2023-02-18T03:56:46;2.00;99.90
71142;DHT22;58808;59.366;17.970;2023-02-18T03:59:13;2.00;99.90
71142;DHT22;58808;59.366;17.970;2023-02-18T04:01:40;2.00;99.90
71142;DHT22;58808;59.366;17.970;2023-02-18T04:04:07;1.90;99.90
71142;DHT22;58808;59.366;17.970;2023-02-18T04:06:35;1.90;99.90
71142;DHT22;58808;59.366;17.970;2023-02-18T04:09:03;1.90;99.90
71142;DHT22;58808;59.366;17.970;2023-02-18T04:11:42;1.90;99.90
71142;DHT22;58808;59.366;17.970;2023-02-18T04:14:09;1.90;99.90
71142;DHT22;58808;59.366;17.970;2023-02-18T04:16:40;1.90;99.90
71142;DHT22;58808;59.366;17.970;2023-02-18T04:19:08;1.90;99.90
71142;DHT22;58808;59.366;17.970;2023-02-18T04:21:36;1.90;99.90
71142;DHT22;58808;59.366;17.970;2023-02-18T04:24:03;1.90;99.90
71142;DHT22;58808;59.366;17.970;2023-02-18T04:26:29;1.80;99.90
71142;DHT22;58808;59.366;17.970;2023-02-18T04:28:54;1.90;99.90
71142;DHT22;58808;59.366;17.970;2023-02-18T04:31:20;1.90;99.90
71142;DHT22;58808;59.366;17.970;2023-02-18T04:33:46;1.90;99.90
71142;DHT22;58808;59.366;17.970;2023-02-18T04:36:12;1.90;99.90
71142;DHT22;58808;59.366;17.970;2023-02-18T04:38:37;1.90;99.90
71142;DHT22;58808;59.366;17.970;2023-02-18T04:41:03;1.90;99.90
71142;DHT22;58808;59.366;17.970;2023-02-18T04:43:29;1.90;99.90
71142;DHT22;58808;59.366;17.970;2023-02-18T04:45:55;1.90;99.90
71142;DHT22;58808;59.366;17.970;2023-02-18T04:48:20;1.90;99.90
71142;DHT22;58808;59.366;17.970;2023-02-18T04:50:46;1.90;99.90
71142;DHT22;58808;59.366;17.970;2023-02-18T04:53:12;1.90;99.90
71142;DHT22;58808;59.366;17.970;2023-02-18T04:55:37;1.90;99.90
71142;DHT22;58808;59.366;17.970;2023-02-18T04:58:03;1.90;99.90
71142;DHT22;58808;59.366;17.970;2023-02-18T05:00:29;1.90;99.90
71142;DHT22;58808;59.366;17.970;2023-02-18T05:02:55;1.90;99.90
71142;DHT22;58808;59.366;17.970;2023-02-18T05:05:20;1.90;99.90
71142;DHT22;58808;59.366;17.970;2023-02-18T05:07:46;1.90;99.90
71142;DHT22;58808;59.366;17.970;2023-02-18T05:10:16;1.90;99.90
71142;DHT22;58808;59.366;17.970;2023-02-18T05:12:42;1.90;99.90
71142;DHT22;58808;59.366;17.970;2023-02-18T05:15:08;1.90;99.90
71142;DHT22;58808;59.366;17.970;2023-02-18T05:17:34;1.90;99.90
71142;DHT22;58808;59.366;17.970;2023-02-18T05:20:00;1.90;99.90
71142;DHT22;58808;59.366;17.970;2023-02-18T05:22:26;1.90;99.90
71142;DHT22;58808;59.366;17.970;2023-02-18T05:24:52;1.90;99.90
71142;DHT22;58808;59.366;17.970;2023-02-18T05:27:18;1.90;99.90
71142;DHT22;58808;59.366;17.970;2023-02-18T05:29:44;1.90;99.90
71142;DHT22;58808;59.366;17.970;2023-02-18T05:32:10;1.90;99.90
71142;DHT22;58808;59.366;17.970;2023-02-18T05:34:35;1.90;99.90
71142;DHT22;58808;59.366;17.970;2023-02-18T05:37:01;1.90;99.90
71142;DHT22;58808;59.366;17.970;2023-02-18T05:39:27;1.90;99.90
71142;DHT22;58808;59.366;17.970;2023-02-18T05:41:53;1.90;99.90
71142;DHT22;58808;59.366;17.970;2023-02-18T05:44:18;1.90;99.90
71142;DHT22;58808;59.366;17.970;2023-02-18T05:47:03;1.90;99.90
71142;DHT22;58808;59.366;17.970;2023-02-18T05:49:30;1.90;99.90
71142;DHT22;58808;59.366;17.970;2023-02-18T05:51:56;2.00;99.90
71142;DHT22;58808;59.366;17.970;2023-02-18T05:54:23;1.90;99.90
71142;DHT22;58808;59.366;17.970;2023-02-18T05:56:49;1.90;99.90
71142;DHT22;58808;59.366;17.970;2023-02-18T05:59:14;1.90;99.90
71142;DHT22;58808;59.366;17.970;2023-02-18T06:01:40;1.90;99.90
71142;DHT22;58808;59.366;17.970;2023-02-18T06:04:06;1.90;99.90
71142;DHT22;58808;59.366;17.970;2023-02-18T06:06:32;1.90;99.90
71142;DHT22;58808;59.366;17.970;2023-02-18T06:08:58;2.00;99.90
71142;DHT22;58808;59.366;17.970;2023-02-18T06:11:23;1.90;99.90
71142;DHT22;58808;59.366;17.970;2023-02-18T06:13:49;1.90;99.90
71142;DHT22;58808;59.366;17.970;2023-02-18T06:16:15;1.90;99.90
71142;DHT22;58808;59.366;17.970;2023-02-18T06:18:40;2.00;99.90
71142;DHT22;58808;59.366;17.970;2023-02-18T06:21:06;2.00;99.90
71142;DHT22;58808;59.366;17.970;2023-02-18T06:23:32;1.90;99.90
71142;DHT22;58808;59.366;17.970;2023-02-18T06:25:58;2.00;99.90
71142;DHT22;58808;59.366;17.970;2023-02-18T06:28:23;1.90;99.90
71142;DHT22;58808;59.366;17.970;2023-02-18T06:30:49;2.00;99.90
71142;DHT22;58808;59.366;17.970;2023-02-18T06:33:15;2.00;99.90
71142;DHT22;58808;59.366;17.970;2023-02-18T06:35:41;2.00;99.90
71142;DHT22;58808;59.366;17.970;2023-02-18T06:38:06;2.00;99.90
71142;DHT22;58808;59.366;17.970;2023-02-18T06:40:32;2.00;99.90
71142;DHT22;58808;59.366;17.970;2023-02-18T06:42:58;2.00;99.90
71142;DHT22;58808;59.366;17.970;2023-02-18T06:45:24;2.00;99.90
71142;DHT22;58808;59.366;17.970;2023-02-18T06:47:50;2.00;99.90
71142;DHT22;58808;59.366;17.970;2023-02-18T06:50:16;2.00;99.90
71142;DHT22;58808;59.366;17.970;2023-02-18T06:52:41;2.00;99.90
71142;DHT22;58808;59.366;17.970;2023-02-18T06:55:08;2.00;99.90
71142;DHT22;58808;59.366;17.970;2023-02-18T06:57:36;2.00;99.90
71142;DHT22;58808;59.366;17.970;2023-02-18T07:00:04;2.00;99.90
71142;DHT22;58808;59.366;17.970;2023-02-18T07:02:30;2.00;99.90
71142;DHT22;58808;59.366;17.970;2023-02-18T07:04:55;2.00;99.90
71142;DHT22;58808;59.366;17.970;2023-02-18T07:07:21;2.10;99.90
71142;DHT22;58808;59.366;17.970;2023-02-18T07:09:47;2.10;99.90
71142;DHT22;58808;59.366;17.970;2023-02-18T07:12:13;2.10;99.90
71142;DHT22;58808;59.366;17.970;2023-02-18T07:14:38;2.10;99.90
71142;DHT22;58808;59.366;17.970;2023-02-18T07:17:04;2.20;99.90
71142;DHT22;58808;59.366;17.970;2023-02-18T07:19:30;2.10;99.90
71142;DHT22;58808;59.366;17.970;2023-02-18T07:21:56;2.10;99.90
71142;DHT22;58808;59.366;17.970;2023-02-18T07:24:22;2.10;99.90
71142;DHT22;58808;59.366;17.970;2023-02-18T07:26:48;2.10;99.90
71142;DHT22;58808;59.366;17.970;2023-02-18T07:29:14;2.10;99.90
71142;DHT22;58808;59.366;17.970;2023-02-18T07:31:40;2.20;99.90
71142;DHT22;58808;59.366;17.970;2023-02-18T07:34:06;2.20;99.90
71142;DHT22;58808;59.366;17.970;2023-02-18T07:36:31;2.20;99.90
71142;DHT22;58808;59.366;17.970;2023-02-18T07:38:57;2.20;99.90
71142;DHT22;58808;59.366;17.970;2023-02-18T07:41:23;2.20;99.90
71142;DHT22;58808;59.366;17.970;2023-02-18T07:43:49;2.20;99.90
71142;DHT22;58808;59.366;17.970;2023-02-18T07:46:15;2.20;99.90
71142;DHT22;58808;59.366;17.970;2023-02-18T07:48:41;2.20;99.90
71142;DHT22;58808;59.366;17.970;2023-02-18T07:51:09;2.20;99.90
71142;DHT22;58808;59.366;17.970;2023-02-18T07:53:35;2.20;99.90
71142;DHT22;58808;59.366;17.970;2023-02-18T07:56:02;2.20;99.90
71142;DHT22;58808;59.366;17.970;2023-02-18T07:58:33;2.20;99.90
71142;DHT22;58808;59.366;17.970;2023-02-18T08:00:59;2.20;99.90
71142;DHT22;58808;59.366;17.970;2023-02-18T08:03:27;2.20;99.90
71142;DHT22;58808;59.366;17.970;2023-02-18T08:05:54;2.20;99.90
71142;DHT22;58808;59.366;17.970;2023-02-18T08:08:22;2.20;99.90
71142;DHT22;58808;59.366;17.970;2023-02-18T08:10:49;2.20;99.90
71142;DHT22;58808;59.366;17.970;2023-02-18T08:13:16;2.20;99.90
71142;DHT22;58808;59.366;17.970;2023-02-18T08:15:42;2.20;99.90
71142;DHT22;58808;59.366;17.970;2023-02-18T08:18:14;2.20;99.90
71142;DHT22;58808;59.366;17.970;2023-02-18T08:20:40;2.30;99.90
71142;DHT22;58808;59.366;17.970;2023-02-18T08:23:06;2.20;99.90
71142;DHT22;58808;59.366;17.970;2023-02-18T08:25:32;2.20;99.90
71142;DHT22;58808;59.366;17.970;2023-02-18T08:27:58;2.20;99.90
71142;DHT22;58808;59.366;17.970;2023-02-18T08:30:24;2.20;99.90
71142;DHT22;58808;59.366;17.970;2023-02-18T08:32:50;2.20;99.90
71142;DHT22;58808;59.366;17.970;2023-02-18T08:35:16;2.20;99.90
71142;DHT22;58808;59.366;17.970;2023-02-18T08:37:42;2.20;99.90
71142;DHT22;58808;59.366;17.970;2023-02-18T08:40:09;2.20;99.90
71142;DHT22;58808;59.366;17.970;2023-02-18T08:42:35;2.30;99.90
71142;DHT22;58808;59.366;17.970;2023-02-18T08:45:02;2.30;99.90
71142;DHT22;58808;59.366;17.970;2023-02-18T08:47:28;2.30;99.90
71142;DHT22;58808;59.366;17.970;2023-02-18T08:49:54;2.30;99.90
71142;DHT22;58808;59.366;17.970;2023-02-18T08:52:20;2.30;99.90
71142;DHT22;58808;59.366;17.970;2023-02-18T08:54:46;2.30;99.90
71142;DHT22;58808;59.366;17.970;2023-02-18T08:57:11;2.40;99.90
71142;DHT22;58808;59.366;17.970;2023-02-18T08:59:37;2.40;99.90
71142;DHT22;58808;59.366;17.970;2023-02-18T09:02:03;2.40;99.90
71142;DHT22;58808;59.366;17.970;2023-02-18T09:04:29;2.40;99.90
71142;DHT22;58808;59.366;17.970;2023-02-18T09:06:55;2.40;99.90
71142;DHT22;58808;59.366;17.970;2023-02-18T09:09:21;2.40;99.90
71142;DHT22;58808;59.366;17.970;2023-02-18T09:11:47;2.50;99.90
71142;DHT22;58808;59.366;17.970;2023-02-18T09:14:13;2.50;99.90
71142;DHT22;58808;59.366;17.970;2023-02-18T09:16:40;2.50;99.90
71142;DHT22;58808;59.366;17.970;2023-02-18T09:19:05;2.50;99.90
71142;DHT22;58808;59.366;17.970;2023-02-18T09:21:31;2.50;99.90
71142;DHT22;58808;59.366;17.970;2023-02-18T09:23:58;2.60;99.90
71142;DHT22;58808;59.366;17.970;2023-02-18T09:26:24;2.60;99.90
71142;DHT22;58808;59.366;17.970;2023-02-18T09:28:52;2.60;99.90
71142;DHT22;58808;59.366;17.970;2023-02-18T09:31:21;2.60;99.90
71142;DHT22;58808;59.366;17.970;2023-02-18T09:34:07;2.70;99.90
71142;DHT22;58808;59.366;17.970;2023-02-18T09:36:33;2.70;99.90
71142;DHT22;58808;59.366;17.970;2023-02-18T09:38:59;2.70;99.90
71142;DHT22;58808;59.366;17.970;2023-02-18T09:41:41;2.70;99.90
71142;DHT22;58808;59.366;17.970;2023-02-18T09:44:29;2.70;99.90
71142;DHT22;58808;59.366;17.970;2023-02-18T09:49:33;2.80;99.90
71142;DHT22;58808;59.366;17.970;2023-02-18T09:52:16;2.80;99.90
71142;DHT22;58808;59.366;17.970;2023-02-18T09:54:43;2.80;99.90
71142;DHT22;58808;59.366;17.970;2023-02-18T09:57:21;2.80;99.90
71142;DHT22;58808;59.366;17.970;2023-02-18T09:59:55;2.80;99.90
71142;DHT22;58808;59.366;17.970;2023-02-18T10:02:22;2.80;99.90
71142;DHT22;58808;59.366;17.970;2023-02-18T10:04:48;2.90;99.90
71142;DHT22;58808;59.366;17.970;2023-02-18T10:07:32;2.90;99.90
71142;DHT22;58808;59.366;17.970;2023-02-18T10:10:04;2.90;99.90
71142;DHT22;58808;59.366;17.970;2023-02-18T10:12:37;3.00;99.90
71142;DHT22;58808;59.366;17.970;2023-02-18T10:15:09;3.00;99.90
71142;DHT22;58808;59.366;17.970;2023-02-18T10:17:41;3.10;99.90
71142;DHT22;58808;59.366;17.970;2023-02-18T10:20:09;3.20;99.90
71142;DHT22;58808;59.366;17.970;2023-02-18T10:22:36;3.20;99.90
71142;DHT22;58808;59.366;17.970;2023-02-18T10:25:04;3.10;99.90
71142;DHT22;58808;59.366;17.970;2023-02-18T10:27:36;3.10;99.90
71142;DHT22;58808;59.366;17.970;2023-02-18T10:33:16;3.10;99.90
71142;DHT22;58808;59.366;17.970;2023-02-18T10:36:17;3.20;99.90
71142;DHT22;58808;59.366;17.970;2023-02-18T10:50:02;3.30;99.90
71142;DHT22;58808;59.366;17.970;2023-02-18T10:52:35;3.40;99.90
71142;DHT22;58808;59.366;17.970;2023-02-18T10:55:14;3.40;99.90
71142;DHT22;58808;59.366;17.970;2023-02-18T10:57:53;3.40;99.90
71142;DHT22;58808;59.366;17.970;2023-02-18T11:00:24;3.50;99.90
71142;DHT22;58808;59.366;17.970;2023-02-18T11:03:14;3.50;99.90
71142;DHT22;58808;59.366;17.970;2023-02-18T11:05:41;3.50;99.90
71142;DHT22;58808;59.366;17.970;2023-02-18T11:08:10;3.60;99.90
71142;DHT22;58808;59.366;17.970;2023-02-18T11:10:41;3.60;99.90
71142;DHT22;58808;59.366;17.970;2023-02-18T11:13:11;3.70;99.90
71142;DHT22;58808;59.366;17.970;2023-02-18T11:15:38;3.80;99.90
71142;DHT22;58808;59.366;17.970;2023-02-18T11:18:37;3.80;99.90
71142;DHT22;58808;59.366;17.970;2023-02-18T11:23:50;3.90;99.90
71142;DHT22;58808;59.366;17.970;2023-02-18T11:26:18;3.90;99.90
71142;DHT22;58808;59.366;17.970;2023-02-18T11:28:49;4.00;99.90
71142;DHT22;58808;59.366;17.970;2023-02-18T11:31:25;4.00;99.90
71142;DHT22;58808;59.366;17.970;2023-02-18T11:33:57;3.90;99.90
71142;DHT22;58808;59.366;17.970;2023-02-18T11:36:35;3.90;99.90
71142;DHT22;58808;59.366;17.970;2023-02-18T11:39:05;3.90;99.90
71142;DHT22;58808;59.366;17.970;2023-02-18T11:41:38;3.90;99.90
71142;DHT22;58808;59.366;17.970;2023-02-18T11:44:17;3.90;99.90
71142;DHT22;58808;59.366;17.970;2023-02-18T11:49:24;3.90;99.90
71142;DHT22;58808;59.366;17.970;2023-02-18T11:51:51;3.90;99.90
71142;DHT22;58808;59.366;17.970;2023-02-18T11:54:35;3.90;99.90
71142;DHT22;58808;59.366;17.970;2023-02-18T11:57:03;4.00;99.90
71142;DHT22;58808;59.366;17.970;2023-02-18T11:59:32;4.00;99.90
71142;DHT22;58808;59.366;17.970;2023-02-18T12:05:17;4.10;99.90
71142;DHT22;58808;59.366;17.970;2023-02-18T12:07:51;4.20;99.90
71142;DHT22;58808;59.366;17.970;2023-02-18T12:10:25;4.30;99.90
71142;DHT22;58808;59.366;17.970;2023-02-18T12:15:31;4.30;99.90
71142;DHT22;58808;59.366;17.970;2023-02-18T12:18:22;4.40;99.90
71142;DHT22;58808;59.366;17.970;2023-02-18T12:21:03;4.40;99.90
71142;DHT22;58808;59.366;17.970;2023-02-18T12:34:31;4.50;99.90
71142;DHT22;58808;59.366;17.970;2023-02-18T12:43:13;4.60;99.90
71142;DHT22;58808;59.366;17.970;2023-02-18T12:53:45;4.70;99.90
71142;DHT22;58808;59.366;17.970;2023-02-18T13:07:33;4.80;99.90
71142;DHT22;58808;59.366;17.970;2023-02-18T13:15:04;5.30;98.00
71142;DHT22;58808;59.366;17.970;2023-02-18T13:17:34;5.50;97.50
71142;DHT22;58808;59.366;17.970;2023-02-18T13:20:28;5.70;92.70
71142;DHT22;58808;59.366;17.970;2023-02-18T13:22:58;5.60;93.50
71142;DHT22;58808;59.366;17.970;2023-02-18T13:25:24;5.50;92.00
71142;DHT22;58808;59.366;17.970;2023-02-18T13:37:17;5.10;95.40
71142;DHT22;58808;59.366;17.970;2023-02-18T13:39:53;5.10;96.70
71142;DHT22;58808;59.366;17.970;2023-02-18T13:42:31;5.00;96.40
71142;DHT22;58808;59.366;17.970;2023-02-18T13:47:44;5.00;98.70
71142;DHT22;58808;59.366;17.970;2023-02-18T13:52:49;5.00;98.10
71142;DHT22;58808;59.366;17.970;2023-02-18T13:55:26;5.00;99.00
71142;DHT22;58808;59.366;17.970;2023-02-18T13:57:59;5.00;99.40
71142;DHT22;58808;59.366;17.970;2023-02-18T14:00:35;5.00;98.20
71142;DHT22;58808;59.366;17.970;2023-02-18T14:03:49;5.00;99.90
71142;DHT22;58808;59.366;17.970;2023-02-18T14:06:33;4.90;99.10
71142;DHT22;58808;59.366;17.970;2023-02-18T14:11:46;4.90;97.70
71142;DHT22;58808;59.366;17.970;2023-02-18T14:14:32;4.80;96.00
71142;DHT22;58808;59.366;17.970;2023-02-18T14:19:54;4.70;97.80
71142;DHT22;58808;59.366;17.970;2023-02-18T14:22:33;4.80;97.00
71142;DHT22;58808;59.366;17.970;2023-02-18T14:27:34;4.70;95.50
71142;DHT22;58808;59.366;17.970;2023-02-18T14:30:17;4.70;97.20
71142;DHT22;58808;59.366;17.970;2023-02-18T14:32:44;4.70;95.20
71142;DHT22;58808;59.366;17.970;2023-02-18T14:38:01;5.00;99.90
71142;DHT22;58808;59.366;17.970;2023-02-18T14:41:13;4.90;95.40
71142;DHT22;58808;59.366;17.970;2023-02-18T14:51:41;4.70;95.10
71142;DHT22;58808;59.366;17.970;2023-02-18T14:54:13;4.70;94.20
71142;DHT22;58808;59.366;17.970;2023-02-18T14:57:04;4.70;94.70
71142;DHT22;58808;59.366;17.970;2023-02-18T14:59:39;4.70;94.20
71142;DHT22;58808;59.366;17.970;2023-02-18T15:02:34;4.70;94.00
71142;DHT22;58808;59.366;17.970;2023-02-18T15:05:20;4.60;94.00
71142;DHT22;58808;59.366;17.970;2023-02-18T15:08:01;4.60;94.00
71142;DHT22;58808;59.366;17.970;2023-02-18T15:13:07;4.50;93.60
71142;DHT22;58808;59.366;17.970;2023-02-18T15:15:34;4.50;93.10
71142;DHT22;58808;59.366;17.970;2023-02-18T15:18:03;4.50;93.60
71142;DHT22;58808;59.366;17.970;2023-02-18T15:20:32;4.50;93.30
71142;DHT22;58808;59.366;17.970;2023-02-18T15:22:59;4.40;92.80
71142;DHT22;58808;59.366;17.970;2023-02-18T15:25:25;4.40;92.50
71142;DHT22;58808;59.366;17.970;2023-02-18T15:27:51;4.40;93.00
71142;DHT22;58808;59.366;17.970;2023-02-18T15:30:20;4.50;91.20
71142;DHT22;58808;59.366;17.970;2023-02-18T15:32:55;4.50;90.20
71142;DHT22;58808;59.366;17.970;2023-02-18T15:35:22;4.50;88.70
71142;DHT22;58808;59.366;17.970;2023-02-18T15:37:55;4.50;87.30
71142;DHT22;58808;59.366;17.970;2023-02-18T15:40:25;4.50;84.50
71142;DHT22;58808;59.366;17.970;2023-02-18T15:42:55;4.50;84.60
71142;DHT22;58808;59.366;17.970;2023-02-18T15:45:34;4.50;86.30
71142;DHT22;58808;59.366;17.970;2023-02-18T15:48:02;4.50;85.10
71142;DHT22;58808;59.366;17.970;2023-02-18T15:50:32;4.40;85.90
71142;DHT22;58808;59.366;17.970;2023-02-18T15:53:06;4.40;85.80
71142;DHT22;58808;59.366;17.970;2023-02-18T15:55:36;4.30;86.80
71142;DHT22;58808;59.366;17.970;2023-02-18T15:58:06;4.30;88.60
71142;DHT22;58808;59.366;17.970;2023-02-18T16:03:44;4.20;87.30
71142;DHT22;58808;59.366;17.970;2023-02-18T16:06:11;4.20;86.80
71142;DHT22;58808;59.366;17.970;2023-02-18T16:08:38;4.20;87.90
71142;DHT22;58808;59.366;17.970;2023-02-18T16:11:07;4.10;87.70
71142;DHT22;58808;59.366;17.970;2023-02-18T16:13:35;4.10;86.60
71142;DHT22;58808;59.366;17.970;2023-02-18T16:16:02;4.10;86.30
71142;DHT22;58808;59.366;17.970;2023-02-18T16:18:35;4.10;87.10
71142;DHT22;58808;59.366;17.970;2023-02-18T16:21:05;4.00;87.40
71142;DHT22;58808;59.366;17.970;2023-02-18T16:23:50;4.00;87.70
71142;DHT22;58808;59.366;17.970;2023-02-18T16:29:22;4.00;88.80
71142;DHT22;58808;59.366;17.970;2023-02-18T16:31:48;3.90;89.00
71142;DHT22;58808;59.366;17.970;2023-02-18T16:34:14;3.90;89.50
71142;DHT22;58808;59.366;17.970;2023-02-18T16:36:40;3.90;90.10
71142;DHT22;58808;59.366;17.970;2023-02-18T16:39:31;3.90;90.70
71142;DHT22;58808;59.366;17.970;2023-02-18T16:41:57;3.90;91.40
71142;DHT22;58808;59.366;17.970;2023-02-18T16:44:23;3.80;92.40
71142;DHT22;58808;59.366;17.970;2023-02-18T16:46:49;3.80;92.20
71142;DHT22;58808;59.366;17.970;2023-02-18T16:49:15;3.80;91.90
71142;DHT22;58808;59.366;17.970;2023-02-18T16:51:41;3.80;90.90
71142;DHT22;58808;59.366;17.970;2023-02-18T16:54:12;3.80;90.40
71142;DHT22;58808;59.366;17.970;2023-02-18T16:56:38;3.70;90.80
71142;DHT22;58808;59.366;17.970;2023-02-18T16:59:04;3.70;90.00
71142;DHT22;58808;59.366;17.970;2023-02-18T17:01:33;3.70;87.90
71142;DHT22;58808;59.366;17.970;2023-02-18T17:04:03;3.60;86.90
71142;DHT22;58808;59.366;17.970;2023-02-18T17:06:31;3.70;85.80
71142;DHT22;58808;59.366;17.970;2023-02-18T17:08:57;3.60;86.10
71142;DHT22;58808;59.366;17.970;2023-02-18T17:11:30;3.60;83.30
71142;DHT22;58808;59.366;17.970;2023-02-18T17:13:58;3.60;82.10
71142;DHT22;58808;59.366;17.970;2023-02-18T17:16:26;3.60;80.00
71142;DHT22;58808;59.366;17.970;2023-02-18T17:18:52;3.60;79.30
71142;DHT22;58808;59.366;17.970;2023-02-18T17:21:23;3.60;79.10
71142;DHT22;58808;59.366;17.970;2023-02-18T17:23:49;3.50;78.90
71142;DHT22;58808;59.366;17.970;2023-02-18T17:26:22;3.50;78.10
71142;DHT22;58808;59.366;17.970;2023-02-18T17:28:52;3.50;77.80
71142;DHT22;58808;59.366;17.970;2023-02-18T17:31:26;3.50;77.10
71142;DHT22;58808;59.366;17.970;2023-02-18T17:33:53;3.50;77.80
71142;DHT22;58808;59.366;17.970;2023-02-18T17:36:19;3.50;77.30
71142;DHT22;58808;59.366;17.970;2023-02-18T17:38:45;3.50;77.90
71142;DHT22;58808;59.366;17.970;2023-02-18T17:41:14;3.40;79.40
71142;DHT22;58808;59.366;17.970;2023-02-18T17:43:40;3.40;81.00
71142;DHT22;58808;59.366;17.970;2023-02-18T17:46:13;3.40;83.50
71142;DHT22;58808;59.366;17.970;2023-02-18T17:48:40;3.30;85.40
71142;DHT22;58808;59.366;17.970;2023-02-18T17:51:09;3.30;87.30
71142;DHT22;58808;59.366;17.970;2023-02-18T17:53:36;3.30;88.80
71142;DHT22;58808;59.366;17.970;2023-02-18T17:56:02;3.20;89.90
71142;DHT22;58808;59.366;17.970;2023-02-18T17:58:28;3.20;90.60
71142;DHT22;58808;59.366;17.970;2023-02-18T18:00:55;3.20;91.30
71142;DHT22;58808;59.366;17.970;2023-02-18T18:03:22;3.20;91.30
71142;DHT22;58808;59.366;17.970;2023-02-18T18:05:49;3.10;91.20
71142;DHT22;58808;59.366;17.970;2023-02-18T18:08:17;3.10;91.10
71142;DHT22;58808;59.366;17.970;2023-02-18T18:10:48;3.10;91.00
71142;DHT22;58808;59.366;17.970;2023-02-18T18:13:33;3.10;91.20
71142;DHT22;58808;59.366;17.970;2023-02-18T18:15:59;3.00;91.10
71142;DHT22;58808;59.366;17.970;2023-02-18T18:18:26;3.10;91.00
71142;DHT22;58808;59.366;17.970;2023-02-18T18:20:57;3.00;91.10
71142;DHT22;58808;59.366;17.970;2023-02-18T18:23:23;3.00;91.30
71142;DHT22;58808;59.366;17.970;2023-02-18T18:25:51;3.00;91.20
71142;DHT22;58808;59.366;17.970;2023-02-18T18:28:17;2.90;91.50
71142;DHT22;58808;59.366;17.970;2023-02-18T18:30:46;2.90;91.90